Espyville, Pennsylvania
Current Conditions -  °F | °C
As of 12:07 AM on Saturday 29 Nov 2014 (Local Time) from KGKJ Reporting Station
Light Snow Light Snow  
Wind Chill: -8°   Ceiling: 4100
Heat Index: -5°   Visibility: 1.7mi
Dew Point: -7°   Wind: 5mph
Humidity: 85%   Direction: NA
Pressure: 30.13"   Gusts: NA
Location:  41.6811°N, 80.4288°W
Report Text: KGKJ 290507Z AUTO VRB04KT 1 3/4SM -SN BR OVC041 M05/M07 A3013 RMK AO2 P0000 T10501072 TSNO
Loading
Personal Weather Stations






























Interactive Weather Map New forecast layout! Learn more

10-Day Weather Forecast

Advertisements
Track Severe Weather on mobile